Airfield :
LOGIN :

Register | Disclaimer

   EN    FR    IT 

 










Legend :    VFR   Marginal VFR   IFR   Intensive IFR   Very Intensive IFR
Visi :
Ceiling :
>= 8 km
>= 3000ft
5 to 8 km
1000 to 3000 ft
1500m to 5 km
500 to 1000 ft
800 to 1500m
200 to 500 ft
< 800m
< 200 ft
Symbols :   Thunderstorms  Fog  Heavy snow  Heavy precipitations  Wind > 20 kt
SIGMETs :     Misc.  Thunderstorms  Icing  Turbulence  Mountain Waves  Volcanic Ashes






- Airport Elevation : 1487 ft
- IATA code : MUC


EDDM - München Franz Josef Strauss

CURRENT METAR :
  • 151450Z AUTO 06004KT 020V090 CAVOK 30/17 Q1012 NOSIG

EXPIRED METARs :
  • 151420Z AUTO 06007KT 020V120 CAVOK 29/15 Q1013 NOSIG
  • 151350Z AUTO 05004KT 030V090 CAVOK 30/14 Q1013 NOSIG
  • 151320Z AUTO 07007KT 020V110 CAVOK 29/14 Q1013 NOSIG
  • 151250Z AUTO 09007KT 040V120 CAVOK 29/15 Q1013 NOSIG
  • 151220Z AUTO 06005KT 010V100 CAVOK 30/16 Q1013 NOSIG
  • 151150Z AUTO 08006KT 040V110 CAVOK 28/14 Q1014 NOSIG
  • 151120Z AUTO 06004KT 020V100 CAVOK 28/15 Q1014 NOSIG
  • 151050Z AUTO 06004KT 030V090 CAVOK 29/15 Q1014 NOSIG
  • 151020Z AUTO 05004KT 360V140 CAVOK 29/15 Q1014 NOSIG

TAF TAF EDDM
Valid from the 15 at 12:00 until the 16 at 18:00 UTC


151100Z 1512/1618 09006KT CAVOK
PROB40
TEMPO 1521/1602 31025G35KT 4000 TSRA BKN050CB
BECMG 1522/1524 25005KT
PROB30
TEMPO 1600/1608 RA BKN014



MET'MAP, your aeronautical weather chart ! - Copyright ORBIFLY December 2007 - Disclaimer

ORBIFLY MET'MAP TEAM :

Programming & Development : Alexandra Zaïnal
Original concept : Baudouin d'Aumeries
Technical & hardware support : Manuel Goepfert
Assistance : Marc-Olivier Méhu




SOURCES & CREDITS :

   NOAA